Flight Track Log - Related Links

Times and Time Zones

All times are in EDT time to prevent confusion due to time zone crossing. See the SWA1197 flight status page for this flight to view local times or setup timezone preferences in your user account.

Time Position Orientation Groundspeed Altitude Reporting Facility
EDT Latitude Longitude Course Direction KTS MPH feet Rate Location/Type
Tue 12:08:29 PM 33.4333 -112.0333 270° West 155 178 1,900  Level Phoenix TRACON
Tue 12:09:24 PM 33.4333 -112.0833 270° West 190 219 3,500 2,139 Climbing Phoenix TRACON
Tue 12:10:24 PM 33.4333 -112.1667 270° West 260 299 6,000 2,378 Climbing Phoenix TRACON
Tue 12:11:15 PM 33.4689 -112.2033 319° Northwest 292 336 7,900 2,708 Climbing Albuquerque Center
Tue 12:12:17 PM 33.5614 -112.1822 11° North 285 328 11,100 2,855 Climbing Albuquerque Center
Tue 12:13:19 PM 33.6422 -112.1186 33° Northeast 333 383 13,800 2,516 Climbing Albuquerque Center
Tue 12:14:21 PM 33.7161 -112.0483 38° Northeast 351 404 16,300 2,323 Climbing Albuquerque Center
Tue 12:15:23 PM 33.7986 -111.9706 38° Northeast 373 429 18,600 2,371 Climbing Albuquerque Center
Tue 12:16:25 PM 33.8933 -111.8800 38° Northeast 386 444 21,200 2,371 Climbing Albuquerque Center
Tue 12:17:27 PM 34.0133 -111.8706 North 413 475 23,500 2,032 Climbing Albuquerque Center
Tue 12:18:29 PM 34.1322 -111.8858 354° North 426 490 25,400 1,790 Climbing Albuquerque Center
Tue 12:19:31 PM 34.2625 -111.9056 353° North 438 504 27,200 1,645 Climbing Albuquerque Center
Tue 12:20:33 PM 34.3889 -111.9236 353° North 452 520 28,800 1,440 Climbing Albuquerque Center
Tue 12:21:36 PM 34.5167 -111.9414 353° North 459 528 30,200 1,488 Climbing Albuquerque Center
Tue 12:22:38 PM 34.6475 -111.9594 354° North 467 537 31,900 1,355 Climbing Albuquerque Center
Tue 12:23:40 PM 34.7803 -111.9781 353° North 470 541 33,000 532 Climbing Albuquerque Center
Tue 12:24:42 PM 34.9075 -111.9953 354° North 466 536 33,000  Level Albuquerque Center
Tue 12:25:44 PM 35.0361 -112.0142 353° North 467 537 33,000 97 Level Albuquerque Center
Tue 12:26:46 PM 35.1903 -112.0344 354° North 469 540 33,200 484 Climbing Albuquerque Center
Tue 12:27:48 PM 35.3169 -112.0528 353° North 466 536 34,000 390 Climbing Albuquerque Center
Tue 12:28:49 PM 35.4453 -112.0714 353° North 468 539 34,000  Level Los Angeles Center
Tue 12:29:51 PM 35.5736 -112.0889 354° North 469 540 34,000  Level Los Angeles Center
Tue 12:30:53 PM 35.7264 -112.1111 353° North 466 536 34,000  Level Los Angeles Center
Tue 12:31:55 PM 35.8542 -112.1314 353° North 468 539 34,000  Level Los Angeles Center
Tue 12:32:57 PM 35.9667 -112.2053 332° Northwest 465 535 34,000 48 Level Los Angeles Center
Tue 12:33:59 PM 36.0814 -112.2919 329° Northwest 457 526 34,100 768 Climbing Los Angeles Center
Tue 12:35:02 PM 36.1903 -112.3733 329° Northwest 458 527 35,600 1,392 Climbing Los Angeles Center
Tue 12:36:04 PM 36.2969 -112.4553 328° Northwest 454 522 37,000 1,161 Climbing Los Angeles Center
Tue 12:37:06 PM 36.4264 -112.5519 329° Northwest 452 520 38,000 484 Climbing Los Angeles Center
Tue 12:38:08 PM 36.5336 -112.6353 328° Northwest 452 520 38,000  Level Los Angeles Center
Tue 12:39:10 PM 36.6414 -112.7178 328° Northwest 454 522 38,000  Level Los Angeles Center
Tue 12:40:12 PM 36.7497 -112.8008 328° Northwest 456 525 38,000  Level Los Angeles Center
Tue 12:41:14 PM 36.8575 -112.8847 328° Northwest 453 521 38,000  Level Los Angeles Center
Tue 12:42:16 PM 36.9664 -112.9689 328° Northwest 457 526 38,000  Level Los Angeles Center
Tue 12:43:19 PM 37.0731 -113.0525 328° Northwest 451 519 38,000  Level Los Angeles Center
Tue 12:44:21 PM 37.2022 -113.1542 328° Northwest 452 520 38,000  Level Los Angeles Center
Tue 12:45:23 PM 37.3103 -113.2392 328° Northwest 454 522 38,000  Level Los Angeles Center
Tue 12:46:25 PM 37.4183 -113.3253 328° Northwest 455 524 38,000  Level Los Angeles Center
Tue 12:47:39 PM 37.5467 -113.4269 328° Northwest 453 521 38,000  Level Los Angeles Center
Tue 12:48:17 PM 37.6111 -113.4781 328° Northwest 452 520 38,000  Level Los Angeles Center
Tue 12:48:57 PM 37.6767 -113.5278 329° Northwest 453 521 38,000  Level Salt Lake Center
Tue 12:49:59 PM 37.8056 -113.6278 328° Northwest 451 519 38,000  Level Salt Lake Center
Tue 12:50:46 PM 37.8700 -113.6783 328° Northwest 451 519 38,000  Level Los Angeles Center
Tue 12:51:23 PM 37.9561 -113.7456 328° Northwest 452 520 38,000  Level Los Angeles Center
Tue 12:52:03 PM 38.0189 -113.7958 328° Northwest 450 518 38,000  Level Salt Lake Center
Tue 12:53:05 PM 38.1250 -113.8797 328° Northwest 448 516 38,000  Level Salt Lake Center
Tue 12:54:07 PM 38.2325 -113.9639 328° Northwest 452 520 38,000  Level Salt Lake Center
Tue 12:55:09 PM 38.3381 -114.0481 328° Northwest 448 516 38,000  Level Salt Lake Center
Tue 12:56:11 PM 38.4656 -114.1489 328° Northwest 450 518 38,000  Level Salt Lake Center
Tue 12:57:13 PM 38.5703 -114.2339 328° Northwest 447 514 38,000  Level Salt Lake Center
Tue 12:58:15 PM 38.6753 -114.3169 328° Northwest 443 510 38,000  Level Salt Lake Center
Tue 12:59:18 PM 38.7800 -114.4014 328° Northwest 443 510 38,000  Level Salt Lake Center
Tue 01:00:20 PM 38.8847 -114.4875 327° Northwest 446 513 38,000  Level Salt Lake Center
Tue 01:01:22 PM 38.9903 -114.5739 328° Northwest 448 516 38,000  Level Salt Lake Center
Tue 01:02:24 PM 39.1169 -114.6764 328° Northwest 449 517 38,000  Level Salt Lake Center
Tue 01:03:26 PM 39.2225 -114.7675 326° Northwest 449 517 38,000  Level Salt Lake Center
Tue 01:04:28 PM 39.3247 -114.8514 328° Northwest 452 520 38,000  Level Salt Lake Center
Tue 01:05:30 PM 39.4256 -114.9342 328° Northwest 449 517 38,000  Level Salt Lake Center
Tue 01:06:32 PM 39.5472 -115.0311 328° Northwest 456 525 38,000  Level Salt Lake Center
Tue 01:07:34 PM 39.6492 -115.1158 327° Northwest 455 524 38,000  Level Salt Lake Center
Tue 01:08:36 PM 39.7664 -115.2156 327° Northwest 453 521 38,000  Level Salt Lake Center
Tue 01:09:37 PM 39.8675 -115.2986 328° Northwest 450 518 38,000  Level Salt Lake Center
Tue 01:10:39 PM 39.9831 -115.3975 327° Northwest 446 513 38,000  Level Salt Lake Center
Tue 01:11:41 PM 40.0825 -115.4811 327° Northwest 444 511 38,000  Level Salt Lake Center
Tue 01:12:43 PM 40.1989 -115.5792 327° Northwest 445 512 38,000  Level Salt Lake Center
Tue 01:13:45 PM 40.2983 -115.6639 327° Northwest 445 512 38,000  Level Salt Lake Center
Tue 01:14:47 PM 40.4142 -115.7636 327° Northwest 447 514 38,000  Level Salt Lake Center
Tue 01:15:49 PM 40.5108 -115.8500 326° Northwest 444 511 38,000  Level Salt Lake Center
Tue 01:16:51 PM 40.6267 -115.9483 327° Northwest 443 510 38,000  Level Salt Lake Center
Tue 01:17:53 PM 40.7267 -116.0333 327° Northwest 448 516 38,000  Level Salt Lake Center
Tue 01:18:55 PM 40.8431 -116.1353 326° Northwest 452 520 38,000  Level Salt Lake Center
Tue 01:19:57 PM 40.9400 -116.2208 326° Northwest 443 510 38,000  Level Salt Lake Center
Tue 01:20:59 PM 41.0578 -116.3247 326° Northwest 455 524 38,000  Level Salt Lake Center
Tue 01:22:01 PM 41.1564 -116.4119 326° Northwest 451 519 38,000  Level Salt Lake Center
Tue 01:23:03 PM 41.2700 -116.5128 326° Northwest 443 510 38,000  Level Salt Lake Center
Tue 01:24:04 PM 41.3692 -116.6000 327° Northwest 445 512 38,000  Level Salt Lake Center
Tue 01:25:06 PM 41.4669 -116.6886 326° Northwest 446 513 38,000  Level Salt Lake Center
Tue 01:26:08 PM 41.5811 -116.7903 326° Northwest 443 510 38,000  Level Salt Lake Center
Tue 01:27:10 PM 41.6792 -116.8772 326° Northwest 443 510 38,000  Level Salt Lake Center
Tue 01:28:12 PM 41.7944 -116.9792 327° Northwest 444 511 38,000  Level Salt Lake Center
Tue 01:29:14 PM 41.8928 -117.0692 326° Northwest 446 513 38,000  Level Salt Lake Center
Tue 01:30:16 PM 42.0069 -117.1739 326° Northwest 446 513 38,000  Level Salt Lake Center
Tue 01:31:18 PM 42.1056 -117.2636 326° Northwest 447 514 38,000  Level Salt Lake Center
Tue 01:32:20 PM 42.2197 -117.3689 326° Northwest 446 513 38,000  Level Salt Lake Center
Tue 01:33:22 PM 42.3222 -117.4631 326° Northwest 445 512 38,000  Level Salt Lake Center
Tue 01:34:24 PM 42.4194 -117.5550 325° Northwest 445 512 38,000  Level Salt Lake Center
Tue 01:35:26 PM 42.5342 -117.6592 326° Northwest 443 510 38,000  Level Salt Lake Center
Tue 01:36:28 PM 42.6300 -117.7492 325° Northwest 439 505 38,000  Level Salt Lake Center
Tue 01:37:30 PM 42.7428 -117.8544 326° Northwest 438 504 38,000  Level Salt Lake Center
Tue 01:38:32 PM 42.8397 -117.9458 325° Northwest 442 509 38,000  Level Salt Lake Center
Tue 01:39:34 PM 42.9522 -118.0517 325° Northwest 438 504 38,000  Level Salt Lake Center
Tue 01:40:36 PM 43.0481 -118.1450 325° Northwest 441 507 38,000  Level Salt Lake Center
Tue 01:41:38 PM 43.1400 -118.2467 321° Northwest 442 509 38,000  Level Salt Lake Center
Tue 01:42:40 PM 43.2328 -118.3497 321° Northwest 434 499 38,000  Level Salt Lake Center
Tue 01:43:42 PM 43.3475 -118.4747 322° Northwest 439 505 38,000  Level Salt Lake Center
Tue 01:44:44 PM 43.4408 -118.5786 321° Northwest 433 498 38,000  Level Salt Lake Center
Tue 01:45:46 PM 43.5342 -118.6822 321° Northwest 433 498 38,000  Level Salt Lake Center
Tue 01:46:48 PM 43.6275 -118.7869 321° Northwest 432 497 38,000  Level Salt Lake Center
Tue 01:47:50 PM 43.7194 -118.8914 321° Northwest 431 496 38,000  Level Salt Lake Center
Tue 01:48:22 PM 43.7733 -118.9550 320° Northwest 431 496 38,000  Level Seattle Center
Tue 01:49:24 PM 43.8581 -119.0708 315° West 432 497 38,000  Level Seattle Center
Tue 01:50:25 PM 43.9461 -119.1831 317° Northwest 430 495 38,000  Level Seattle Center
Tue 01:51:26 PM 44.0331 -119.2978 317° Northwest 432 497 38,000 -49 Level Seattle Center
Tue 01:52:27 PM 44.1194 -119.4125 316° Northwest 431 496 37,900 -537 Descending Seattle Center
Tue 01:53:29 PM 44.2072 -119.5275 317° Northwest 432 497 36,900 -1,073 Descending Seattle Center
Tue 01:54:30 PM 44.3111 -119.6678 316° Northwest 433 498 35,700 -1,033 Descending Seattle Center
Tue 01:55:31 PM 44.3978 -119.7836 316° Northwest 432 497 34,800 -927 Descending Seattle Center
Tue 01:56:33 PM 44.4853 -119.9014 316° Northwest 435 501 33,800 -927 Descending Seattle Center
Tue 01:57:34 PM 44.5733 -120.0200 316° Northwest 436 502 32,900 -885 Descending Seattle Center
Tue 01:58:35 PM 44.6631 -120.1414 316° Northwest 444 511 32,000 -439 Descending Seattle Center
Tue 01:59:37 PM 44.7528 -120.2639 316° Northwest 445 512 32,000  Level Seattle Center
Tue 02:00:38 PM 44.8428 -120.3875 316° Northwest 447 514 32,000  Level Seattle Center
Tue 02:01:40 PM 44.9333 -120.5122 316° Northwest 449 517 32,000 -293 Level Seattle Center
Tue 02:02:41 PM 45.0228 -120.6353 316° Northwest 448 516 31,400 -1,426 Descending Seattle Center
Tue 02:03:42 PM 45.1103 -120.7569 316° Northwest 441 507 29,100 -2,293 Descending Seattle Center
Tue 02:04:44 PM 45.1933 -120.8731 315° West 423 487 26,700 -2,293 Descending Seattle Center
Tue 02:05:45 PM 45.2742 -120.9858 316° Northwest 410 472 24,400 -2,410 Descending Seattle Center
Tue 02:06:46 PM 45.3661 -121.1156 315° West 391 450 21,800 -2,341 Descending Seattle Center
Tue 02:07:48 PM 45.4311 -121.2286 309° West 372 428 19,600 -2,244 Descending Seattle Center
Tue 02:08:49 PM 45.4492 -121.3708 280° West 359 413 17,200 -2,213 Descending Seattle Center
Tue 02:09:50 PM 45.4656 -121.5083 280° West 355 409 15,100 -2,000 Descending Seattle Center
Tue 02:10:52 PM 45.4819 -121.6397 280° West 338 389 13,100 -2,000 Descending Seattle Center
Tue 02:11:53 PM 45.4953 -121.7692 278° West 331 381 11,000 -1,574 Descending Seattle Center
Tue 02:12:54 PM 45.4997 -121.8883 273° West 300 345 9,900 -1,426 Descending Seattle Center
Tue 02:13:55 PM 45.5000 -122.0022 270° West 280 322 8,100 -1,756 Descending Seattle Center
Tue 02:14:57 PM 45.5022 -122.1081 272° West 272 313 6,300 -1,512 Descending Seattle Center
Tue 02:15:58 PM 45.5069 -122.2178 274° West 275 316 5,000 -1,230 Descending Seattle Center
Tue 02:16:59 PM 45.5086 -122.3217 271° West 271 312 3,800 -1,317 Descending Seattle Center
Tue 02:18:01 PM 45.5178 -122.4258 277° West 242 278 2,300 -1,171 Descending Seattle Center
Tue 02:19:02 PM 45.5431 -122.4903 299° West 210 242 1,400 -787 Descending Seattle Center
Tue 02:20:03 PM 45.5647 -122.5411 301° West 182 209 700 -492 Descending Seattle Center
Tue 02:21:04 PM 45.5847 -122.5897 300° West 173 199 400 -295 Descending Seattle Center

Login

Don't have an account? Register now (free) for customized features, flight alerts, and more!